sensor_id;sensor_type;location;lat;lon;timestamp;pressure;altitude;pressure_sealevel;temperature;humidity
18527;BME280;9393;42.158;24.748;2023-03-26T00:02:36;98831.66;;;15.28;81.65
18527;BME280;9393;42.158;24.748;2023-03-26T00:05:43;98836.34;;;14.90;82.51
18527;BME280;9393;42.158;24.748;2023-03-26T00:08:48;98833.56;;;14.77;83.04
18527;BME280;9393;42.158;24.748;2023-03-26T00:11:52;98834.72;;;14.89;82.08
18527;BME280;9393;42.158;24.748;2023-03-26T00:14:56;98835.41;;;14.97;81.22
18527;BME280;9393;42.158;24.748;2023-03-26T00:18:01;98832.72;;;14.55;83.30
18527;BME280;9393;42.158;24.748;2023-03-26T00:21:07;98827.09;;;14.94;81.64
18527;BME280;9393;42.158;24.748;2023-03-26T00:24:12;98830.41;;;14.81;82.32
18527;BME280;9393;42.158;24.748;2023-03-26T00:27:17;98821.41;;;14.90;82.39
18527;BME280;9393;42.158;24.748;2023-03-26T00:30:21;98823.88;;;14.77;83.77
18527;BME280;9393;42.158;24.748;2023-03-26T00:33:25;98823.41;;;14.88;83.72
18527;BME280;9393;42.158;24.748;2023-03-26T00:36:31;98812.69;;;14.90;84.08
18527;BME280;9393;42.158;24.748;2023-03-26T00:39:37;98811.91;;;14.89;84.88
18527;BME280;9393;42.158;24.748;2023-03-26T00:42:40;98817.91;;;15.04;84.38
18527;BME280;9393;42.158;24.748;2023-03-26T00:45:45;98806.91;;;15.15;83.83
18527;BME280;9393;42.158;24.748;2023-03-26T00:48:49;98800.47;;;15.18;83.98
18527;BME280;9393;42.158;24.748;2023-03-26T00:51:54;98800.19;;;15.34;83.37
18527;BME280;9393;42.158;24.748;2023-03-26T00:54:58;98808.09;;;15.13;84.43
18527;BME280;9393;42.158;24.748;2023-03-26T00:58:03;98809.09;;;15.33;83.67
18527;BME280;9393;42.158;24.748;2023-03-26T01:01:09;98819.97;;;15.09;84.48
18527;BME280;9393;42.158;24.748;2023-03-26T01:04:33;98820.25;;;15.42;83.58
18527;BME280;9393;42.158;24.748;2023-03-26T01:07:40;98813.22;;;15.70;81.99
18527;BME280;9393;42.158;24.748;2023-03-26T01:10:44;98827.16;;;15.43;83.27
18527;BME280;9393;42.158;24.748;2023-03-26T01:13:54;98839.53;;;15.49;82.56
18527;BME280;9393;42.158;24.748;2023-03-26T01:17:01;98851.06;;;15.48;82.43
18527;BME280;9393;42.158;24.748;2023-03-26T01:20:10;98851.91;;;15.55;81.31
18527;BME280;9393;42.158;24.748;2023-03-26T01:23:21;98849.25;;;15.48;81.35
18527;BME280;9393;42.158;24.748;2023-03-26T01:26:45;98850.28;;;15.33;81.16
18527;BME280;9393;42.158;24.748;2023-03-26T01:29:52;98851.22;;;15.46;79.68
18527;BME280;9393;42.158;24.748;2023-03-26T01:33:02;98858.19;;;15.54;79.01
18527;BME280;9393;42.158;24.748;2023-03-26T01:36:13;98860.66;;;15.62;77.51
18527;BME280;9393;42.158;24.748;2023-03-26T01:39:23;98864.06;;;15.56;77.48
18527;BME280;9393;42.158;24.748;2023-03-26T01:42:36;98869.53;;;15.54;77.60
18527;BME280;9393;42.158;24.748;2023-03-26T01:45:46;98879.94;;;15.48;77.41
18527;BME280;9393;42.158;24.748;2023-03-26T01:48:51;98877.44;;;15.40;77.55
18527;BME280;9393;42.158;24.748;2023-03-26T01:51:56;98869.44;;;15.27;77.46
18527;BME280;9393;42.158;24.748;2023-03-26T01:55:00;98871.63;;;15.23;77.33
18527;BME280;9393;42.158;24.748;2023-03-26T01:58:09;98868.75;;;15.18;77.13
18527;BME280;9393;42.158;24.748;2023-03-26T02:01:24;98877.81;;;15.15;76.45
18527;BME280;9393;42.158;24.748;2023-03-26T02:04:33;98869.59;;;15.04;76.49
18527;BME280;9393;42.158;24.748;2023-03-26T02:07:42;98876.56;;;15.11;75.55
18527;BME280;9393;42.158;24.748;2023-03-26T02:10:51;98869.88;;;15.09;74.79
18527;BME280;9393;42.158;24.748;2023-03-26T02:14:00;98870.69;;;15.09;73.06
18527;BME280;9393;42.158;24.748;2023-03-26T02:17:03;98867.03;;;15.10;72.66
18527;BME280;9393;42.158;24.748;2023-03-26T02:20:12;98861.50;;;15.20;70.65
18527;BME280;9393;42.158;24.748;2023-03-26T02:23:16;98861.94;;;15.24;70.48
18527;BME280;9393;42.158;24.748;2023-03-26T02:26:20;98869.56;;;15.40;70.47
18527;BME280;9393;42.158;24.748;2023-03-26T02:29:39;98869.78;;;15.45;69.34
18527;BME280;9393;42.158;24.748;2023-03-26T02:32:45;98859.44;;;15.37;68.65
18527;BME280;9393;42.158;24.748;2023-03-26T02:35:55;98870.88;;;15.29;68.74
18527;BME280;9393;42.158;24.748;2023-03-26T02:39:03;98876.94;;;15.30;67.20
18527;BME280;9393;42.158;24.748;2023-03-26T02:42:11;98877.88;;;15.43;66.58
18527;BME280;9393;42.158;24.748;2023-03-26T02:45:22;98878.97;;;15.49;65.59
18527;BME280;9393;42.158;24.748;2023-03-26T02:48:41;98880.94;;;15.47;64.95
18527;BME280;9393;42.158;24.748;2023-03-26T02:51:51;98887.28;;;15.52;64.67
18527;BME280;9393;42.158;24.748;2023-03-26T02:55:00;98885.38;;;15.46;65.08
18527;BME280;9393;42.158;24.748;2023-03-26T02:58:06;98890.56;;;15.54;64.39
18527;BME280;9393;42.158;24.748;2023-03-26T03:01:14;98893.16;;;15.33;64.19
18527;BME280;9393;42.158;24.748;2023-03-26T03:04:27;98888.94;;;15.39;63.62
18527;BME280;9393;42.158;24.748;2023-03-26T03:07:31;98897.81;;;15.38;62.80
18527;BME280;9393;42.158;24.748;2023-03-26T03:10:40;98899.88;;;15.21;62.95
18527;BME280;9393;42.158;24.748;2023-03-26T03:13:57;98908.53;;;15.36;62.22
18527;BME280;9393;42.158;24.748;2023-03-26T03:17:04;98902.13;;;15.24;62.35
18527;BME280;9393;42.158;24.748;2023-03-26T03:20:08;98901.97;;;15.26;62.53
18527;BME280;9393;42.158;24.748;2023-03-26T03:23:13;98912.47;;;15.26;62.15
18527;BME280;9393;42.158;24.748;2023-03-26T03:26:18;98917.66;;;15.19;61.53
18527;BME280;9393;42.158;24.748;2023-03-26T03:29:26;98926.09;;;15.36;60.45
18527;BME280;9393;42.158;24.748;2023-03-26T03:32:33;98921.47;;;15.38;60.15
18527;BME280;9393;42.158;24.748;2023-03-26T03:35:38;98922.00;;;15.48;59.26
18527;BME280;9393;42.158;24.748;2023-03-26T03:38:44;98923.97;;;15.46;59.75
18527;BME280;9393;42.158;24.748;2023-03-26T03:41:52;98928.59;;;15.23;60.01
18527;BME280;9393;42.158;24.748;2023-03-26T03:44:55;98939.09;;;15.23;59.66
18527;BME280;9393;42.158;24.748;2023-03-26T03:48:21;98943.28;;;15.17;59.10
18527;BME280;9393;42.158;24.748;2023-03-26T03:51:26;98936.16;;;15.32;58.42
18527;BME280;9393;42.158;24.748;2023-03-26T03:54:32;98944.06;;;15.32;58.39
18527;BME280;9393;42.158;24.748;2023-03-26T03:57:42;98956.38;;;14.96;59.55
18527;BME280;9393;42.158;24.748;2023-03-26T04:00:54;98955.44;;;15.03;59.68
18527;BME280;9393;42.158;24.748;2023-03-26T04:04:26;98952.28;;;15.08;59.23
18527;BME280;9393;42.158;24.748;2023-03-26T04:07:35;98962.84;;;15.14;59.32
18527;BME280;9393;42.158;24.748;2023-03-26T04:10:39;98955.78;;;15.15;58.99
18527;BME280;9393;42.158;24.748;2023-03-26T04:14:16;98955.56;;;14.95;59.68
18527;BME280;9393;42.158;24.748;2023-03-26T04:17:32;98951.25;;;14.44;60.67
18527;BME280;9393;42.158;24.748;2023-03-26T04:20:47;98965.28;;;14.51;60.55
18527;BME280;9393;42.158;24.748;2023-03-26T04:23:58;98960.75;;;14.59;60.55
18527;BME280;9393;42.158;24.748;2023-03-26T04:27:24;98979.41;;;14.64;60.26
18527;BME280;9393;42.158;24.748;2023-03-26T04:30:50;98979.63;;;14.55;60.78
18527;BME280;9393;42.158;24.748;2023-03-26T04:34:08;98993.03;;;14.45;61.04
18527;BME280;9393;42.158;24.748;2023-03-26T04:37:29;98987.97;;;14.58;60.80
18527;BME280;9393;42.158;24.748;2023-03-26T04:40:42;98999.47;;;14.43;61.59
18527;BME280;9393;42.158;24.748;2023-03-26T04:44:11;99005.97;;;14.76;60.66
18527;BME280;9393;42.158;24.748;2023-03-26T04:47:23;99018.38;;;14.53;61.06
18527;BME280;9393;42.158;24.748;2023-03-26T04:50:26;99010.97;;;14.56;60.94
18527;BME280;9393;42.158;24.748;2023-03-26T04:53:33;99017.47;;;14.60;60.88
18527;BME280;9393;42.158;24.748;2023-03-26T04:56:59;99017.09;;;14.49;61.45
18527;BME280;9393;42.158;24.748;2023-03-26T05:00:19;99031.22;;;14.62;60.92
18527;BME280;9393;42.158;24.748;2023-03-26T05:03:33;99035.50;;;14.63;60.99
18527;BME280;9393;42.158;24.748;2023-03-26T05:06:46;99034.47;;;14.50;61.38
18527;BME280;9393;42.158;24.748;2023-03-26T05:09:59;99042.72;;;14.47;61.67
18527;BME280;9393;42.158;24.748;2023-03-26T05:13:25;99048.06;;;14.53;61.41
18527;BME280;9393;42.158;24.748;2023-03-26T05:16:30;99050.13;;;14.43;61.73
18527;BME280;9393;42.158;24.748;2023-03-26T05:19:41;99061.75;;;14.78;61.03
18527;BME280;9393;42.158;24.748;2023-03-26T05:22:44;99056.56;;;14.70;61.59
18527;BME280;9393;42.158;24.748;2023-03-26T05:25:55;99050.25;;;14.79;61.42
18527;BME280;9393;42.158;24.748;2023-03-26T05:29:00;99058.69;;;14.89;61.28
18527;BME280;9393;42.158;24.748;2023-03-26T05:32:11;99054.97;;;14.84;61.85
18527;BME280;9393;42.158;24.748;2023-03-26T05:35:15;99061.38;;;14.81;62.03
18527;BME280;9393;42.158;24.748;2023-03-26T05:38:20;99060.50;;;14.89;61.97
18527;BME280;9393;42.158;24.748;2023-03-26T05:41:26;99061.75;;;15.22;61.48
18527;BME280;9393;42.158;24.748;2023-03-26T05:44:29;99064.81;;;15.40;60.76
18527;BME280;9393;42.158;24.748;2023-03-26T05:47:38;99077.91;;;15.70;59.67
18527;BME280;9393;42.158;24.748;2023-03-26T05:50:42;99064.69;;;15.63;60.01
18527;BME280;9393;42.158;24.748;2023-03-26T05:53:46;99077.44;;;16.02;59.19
18527;BME280;9393;42.158;24.748;2023-03-26T05:57:28;99082.72;;;16.02;58.50
18527;BME280;9393;42.158;24.748;2023-03-26T06:01:02;99084.69;;;16.21;58.38
18527;BME280;9393;42.158;24.748;2023-03-26T06:04:27;99092.69;;;16.34;57.75
18527;BME280;9393;42.158;24.748;2023-03-26T06:07:49;99102.28;;;16.63;56.68
18527;BME280;9393;42.158;24.748;2023-03-26T06:10:58;99105.31;;;16.88;55.86
18527;BME280;9393;42.158;24.748;2023-03-26T06:14:07;99126.44;;;16.94;55.64
18527;BME280;9393;42.158;24.748;2023-03-26T06:17:16;99127.25;;;16.95;55.28
18527;BME280;9393;42.158;24.748;2023-03-26T06:20:52;99129.91;;;17.29;54.08
18527;BME280;9393;42.158;24.748;2023-03-26T06:24:06;99123.09;;;17.13;54.26
18527;BME280;9393;42.158;24.748;2023-03-26T06:27:27;99120.66;;;17.46;53.36
18527;BME280;9393;42.158;24.748;2023-03-26T06:30:51;99130.72;;;17.71;51.89
18527;BME280;9393;42.158;24.748;2023-03-26T06:34:05;99113.28;;;17.35;52.10
18527;BME280;9393;42.158;24.748;2023-03-26T06:37:09;99116.31;;;17.66;52.10
18527;BME280;9393;42.158;24.748;2023-03-26T06:40:13;99103.59;;;17.96;51.91
18527;BME280;9393;42.158;24.748;2023-03-26T06:43:32;99104.28;;;18.25;49.79
18527;BME280;9393;42.158;24.748;2023-03-26T06:46:59;99110.94;;;18.14;49.51
18527;BME280;9393;42.158;24.748;2023-03-26T06:50:38;99105.66;;;18.07;49.41
18527;BME280;9393;42.158;24.748;2023-03-26T06:54:00;99116.63;;;18.04;48.84
18527;BME280;9393;42.158;24.748;2023-03-26T06:57:27;99124.75;;;18.03;48.85
18527;BME280;9393;42.158;24.748;2023-03-26T07:00:52;99127.97;;;17.92;49.10
18527;BME280;9393;42.158;24.748;2023-03-26T07:04:16;99128.25;;;18.16;48.69
18527;BME280;9393;42.158;24.748;2023-03-26T07:07:39;99131.50;;;18.45;48.95
18527;BME280;9393;42.158;24.748;2023-03-26T07:11:06;99141.50;;;18.69;46.71
18527;BME280;9393;42.158;24.748;2023-03-26T07:14:29;99141.91;;;19.05;45.84
18527;BME280;9393;42.158;24.748;2023-03-26T07:17:48;99153.19;;;19.52;44.56
18527;BME280;9393;42.158;24.748;2023-03-26T07:21:00;99136.13;;;19.54;43.16
18527;BME280;9393;42.158;24.748;2023-03-26T07:24:09;99142.44;;;19.40;42.83
18527;BME280;9393;42.158;24.748;2023-03-26T07:27:38;99136.97;;;19.86;42.09
18527;BME280;9393;42.158;24.748;2023-03-26T07:30:57;99137.88;;;19.67;42.15
18527;BME280;9393;42.158;24.748;2023-03-26T07:34:21;99142.63;;;19.52;41.87
18527;BME280;9393;42.158;24.748;2023-03-26T07:37:59;99135.72;;;19.95;41.33
18527;BME280;9393;42.158;24.748;2023-03-26T07:41:38;99133.69;;;19.97;41.33
18527;BME280;9393;42.158;24.748;2023-03-26T07:45:21;99120.19;;;20.43;39.98
18527;BME280;9393;42.158;24.748;2023-03-26T07:48:53;99115.91;;;20.42;39.59
18527;BME280;9393;42.158;24.748;2023-03-26T07:52:15;99104.63;;;20.22;38.93
18527;BME280;9393;42.158;24.748;2023-03-26T07:55:42;99116.97;;;20.35;39.34
18527;BME280;9393;42.158;24.748;2023-03-26T07:59:17;99111.09;;;20.26;37.59
18527;BME280;9393;42.158;24.748;2023-03-26T08:06:32;99108.22;;;20.34;37.76
18527;BME280;9393;42.158;24.748;2023-03-26T08:10:05;99106.56;;;20.40;37.53
18527;BME280;9393;42.158;24.748;2023-03-26T08:13:29;99095.94;;;20.08;37.82
18527;BME280;9393;42.158;24.748;2023-03-26T08:16:43;99090.06;;;20.38;38.12
18527;BME280;9393;42.158;24.748;2023-03-26T08:20:03;99096.19;;;20.63;37.29
18527;BME280;9393;42.158;24.748;2023-03-26T08:23:18;99093.56;;;20.32;37.44
18527;BME280;9393;42.158;24.748;2023-03-26T08:26:32;99096.28;;;20.18;38.12
18527;BME280;9393;42.158;24.748;2023-03-26T08:29:41;99097.75;;;20.46;38.08
18527;BME280;9393;42.158;24.748;2023-03-26T08:32:54;99099.38;;;20.47;38.09
18527;BME280;9393;42.158;24.748;2023-03-26T08:35:58;99103.06;;;20.71;37.36
18527;BME280;9393;42.158;24.748;2023-03-26T08:39:02;99097.75;;;21.13;36.25
18527;BME280;9393;42.158;24.748;2023-03-26T08:42:33;99097.03;;;21.25;36.42
18527;BME280;9393;42.158;24.748;2023-03-26T08:46:04;99095.41;;;21.42;35.54
18527;BME280;9393;42.158;24.748;2023-03-26T08:53:06;99110.00;;;20.90;35.34
18527;BME280;9393;42.158;24.748;2023-03-26T08:56:24;99097.00;;;21.06;35.39
18527;BME280;9393;42.158;24.748;2023-03-26T08:59:49;99084.75;;;21.12;35.19
18527;BME280;9393;42.158;24.748;2023-03-26T09:03:19;99087.09;;;21.20;35.07
18527;BME280;9393;42.158;24.748;2023-03-26T09:06:53;99088.78;;;21.33;33.59
18527;BME280;9393;42.158;24.748;2023-03-26T09:10:30;99078.56;;;21.36;33.12
18527;BME280;9393;42.158;24.748;2023-03-26T09:21:47;99074.38;;;21.58;32.38
18527;BME280;9393;42.158;24.748;2023-03-26T09:25:27;99073.81;;;21.56;31.55
18527;BME280;9393;42.158;24.748;2023-03-26T09:29:06;99063.81;;;22.30;31.20
18527;BME280;9393;42.158;24.748;2023-03-26T09:32:40;99049.84;;;21.63;31.59
18527;BME280;9393;42.158;24.748;2023-03-26T09:35:53;99050.81;;;21.80;31.25
18527;BME280;9393;42.158;24.748;2023-03-26T09:39:08;99060.06;;;22.07;30.92
18527;BME280;9393;42.158;24.748;2023-03-26T09:42:17;99053.31;;;21.93;30.85
18527;BME280;9393;42.158;24.748;2023-03-26T09:45:43;99044.69;;;21.98;30.67
18527;BME280;9393;42.158;24.748;2023-03-26T09:49:20;99050.97;;;22.38;29.97
18527;BME280;9393;42.158;24.748;2023-03-26T09:52:46;99046.84;;;22.54;29.71
18527;BME280;9393;42.158;24.748;2023-03-26T09:56:04;99043.59;;;22.29;30.43
18527;BME280;9393;42.158;24.748;2023-03-26T09:59:39;99040.16;;;22.63;30.05
18527;BME280;9393;42.158;24.748;2023-03-26T10:02:58;99027.94;;;22.85;30.21
18527;BME280;9393;42.158;24.748;2023-03-26T10:06:21;99024.53;;;22.90;29.81
18527;BME280;9393;42.158;24.748;2023-03-26T10:09:37;99016.63;;;23.18;29.68
18527;BME280;9393;42.158;24.748;2023-03-26T10:12:50;99015.66;;;22.84;29.23
18527;BME280;9393;42.158;24.748;2023-03-26T10:16:16;99013.91;;;22.55;29.06
18527;BME280;9393;42.158;24.748;2023-03-26T10:19:42;99017.28;;;22.85;29.68
18527;BME280;9393;42.158;24.748;2023-03-26T10:22:59;99011.63;;;23.33;28.91
18527;BME280;9393;42.158;24.748;2023-03-26T10:33:29;98993.66;;;23.40;26.95
18527;BME280;9393;42.158;24.748;2023-03-26T10:36:35;98988.81;;;22.97;27.28
18527;BME280;9393;42.158;24.748;2023-03-26T10:39:54;98980.56;;;23.10;27.19
18527;BME280;9393;42.158;24.748;2023-03-26T10:46:55;98964.97;;;23.71;27.03
18527;BME280;9393;42.158;24.748;2023-03-26T10:50:18;98956.91;;;23.37;26.62
18527;BME280;9393;42.158;24.748;2023-03-26T10:53:31;98963.13;;;23.71;25.96
18527;BME280;9393;42.158;24.748;2023-03-26T10:56:39;98961.81;;;23.57;26.45
18527;BME280;9393;42.158;24.748;2023-03-26T10:59:43;98967.53;;;23.09;26.87
18527;BME280;9393;42.158;24.748;2023-03-26T11:03:04;98961.44;;;23.25;26.97
18527;BME280;9393;42.158;24.748;2023-03-26T11:06:24;98959.59;;;23.26;26.44
18527;BME280;9393;42.158;24.748;2023-03-26T11:09:33;98955.72;;;23.45;26.21
18527;BME280;9393;42.158;24.748;2023-03-26T11:12:43;98948.88;;;23.49;26.37
18527;BME280;9393;42.158;24.748;2023-03-26T11:15:54;98950.28;;;23.68;26.09
18527;BME280;9393;42.158;24.748;2023-03-26T11:19:04;98943.34;;;24.00;25.34
18527;BME280;9393;42.158;24.748;2023-03-26T11:22:21;98938.81;;;23.39;25.34
18527;BME280;9393;42.158;24.748;2023-03-26T11:25:33;98939.72;;;24.06;24.68
18527;BME280;9393;42.158;24.748;2023-03-26T11:29:00;98936.56;;;24.09;25.39
18527;BME280;9393;42.158;24.748;2023-03-26T11:32:34;98923.63;;;24.35;24.97
18527;BME280;9393;42.158;24.748;2023-03-26T11:35:46;98929.22;;;24.00;25.70
18527;BME280;9393;42.158;24.748;2023-03-26T11:38:53;98915.63;;;24.13;24.91
18527;BME280;9393;42.158;24.748;2023-03-26T11:42:07;98928.28;;;24.23;25.24
18527;BME280;9393;42.158;24.748;2023-03-26T11:45:18;98920.56;;;24.43;24.62
18527;BME280;9393;42.158;24.748;2023-03-26T11:48:29;98904.63;;;24.48;24.73
18527;BME280;9393;42.158;24.748;2023-03-26T11:51:37;98916.94;;;24.71;24.42
18527;BME280;9393;42.158;24.748;2023-03-26T11:54:42;98911.91;;;24.74;23.61
18527;BME280;9393;42.158;24.748;2023-03-26T11:57:54;98905.84;;;24.79;24.32
18527;BME280;9393;42.158;24.748;2023-03-26T12:01:03;98909.25;;;24.74;23.91
18527;BME280;9393;42.158;24.748;2023-03-26T12:04:17;98907.44;;;25.01;24.23
18527;BME280;9393;42.158;24.748;2023-03-26T12:07:29;98894.59;;;24.55;24.83
18527;BME280;9393;42.158;24.748;2023-03-26T12:10:36;98901.16;;;24.69;24.40
18527;BME280;9393;42.158;24.748;2023-03-26T12:13:51;98888.06;;;24.84;23.70
18527;BME280;9393;42.158;24.748;2023-03-26T12:16:57;98897.06;;;24.40;24.90
18527;BME280;9393;42.158;24.748;2023-03-26T12:20:29;98892.44;;;24.74;23.85
18527;BME280;9393;42.158;24.748;2023-03-26T12:23:39;98880.72;;;24.75;23.83
18527;BME280;9393;42.158;24.748;2023-03-26T12:26:45;98876.16;;;24.92;23.99
18527;BME280;9393;42.158;24.748;2023-03-26T12:29:51;98872.97;;;24.95;23.59
18527;BME280;9393;42.158;24.748;2023-03-26T12:33:04;98873.06;;;25.05;23.24
18527;BME280;9393;42.158;24.748;2023-03-26T12:36:18;98875.78;;;24.61;24.03
18527;BME280;9393;42.158;24.748;2023-03-26T12:39:29;98869.28;;;24.79;23.56
18527;BME280;9393;42.158;24.748;2023-03-26T12:42:55;98856.97;;;24.95;23.46
18527;BME280;9393;42.158;24.748;2023-03-26T12:46:22;98854.44;;;25.10;23.13
18527;BME280;9393;42.158;24.748;2023-03-26T12:49:48;98846.09;;;25.01;22.81
18527;BME280;9393;42.158;24.748;2023-03-26T12:53:15;98848.31;;;25.09;22.44
18527;BME280;9393;42.158;24.748;2023-03-26T12:56:27;98832.97;;;24.95;21.64
18527;BME280;9393;42.158;24.748;2023-03-26T12:59:52;98834.72;;;24.84;22.34
18527;BME280;9393;42.158;24.748;2023-03-26T13:03:06;98827.44;;;24.80;21.80
18527;BME280;9393;42.158;24.748;2023-03-26T13:06:26;98829.78;;;24.76;22.15
18527;BME280;9393;42.158;24.748;2023-03-26T13:09:54;98820.91;;;24.44;20.36
18527;BME280;9393;42.158;24.748;2023-03-26T13:13:12;98824.34;;;24.66;21.40
18527;BME280;9393;42.158;24.748;2023-03-26T13:16:26;98809.44;;;24.22;21.13
18527;BME280;9393;42.158;24.748;2023-03-26T13:19:39;98811.75;;;24.83;20.81
18527;BME280;9393;42.158;24.748;2023-03-26T13:22:51;98811.56;;;24.90;20.20
18527;BME280;9393;42.158;24.748;2023-03-26T13:26:09;98802.41;;;24.59;20.36
18527;BME280;9393;42.158;24.748;2023-03-26T13:29:24;98796.97;;;24.49;20.84
18527;BME280;9393;42.158;24.748;2023-03-26T13:32:42;98790.72;;;24.87;21.79
18527;BME280;9393;42.158;24.748;2023-03-26T13:35:58;98784.22;;;24.51;21.19
18527;BME280;9393;42.158;24.748;2023-03-26T13:39:26;98795.53;;;24.85;21.73
18527;BME280;9393;42.158;24.748;2023-03-26T13:42:40;98788.97;;;24.76;21.42
18527;BME280;9393;42.158;24.748;2023-03-26T13:45:55;98785.38;;;24.38;21.11
18527;BME280;9393;42.158;24.748;2023-03-26T13:49:04;98788.22;;;24.53;21.24
18527;BME280;9393;42.158;24.748;2023-03-26T13:52:16;98793.44;;;24.43;20.67
18527;BME280;9393;42.158;24.748;2023-03-26T13:55:27;98791.28;;;24.40;21.25
18527;BME280;9393;42.158;24.748;2023-03-26T13:58:35;98786.31;;;24.49;21.08
18527;BME280;9393;42.158;24.748;2023-03-26T14:01:46;98778.38;;;24.54;21.30
18527;BME280;9393;42.158;24.748;2023-03-26T14:04:56;98786.69;;;24.57;21.61
18527;BME280;9393;42.158;24.748;2023-03-26T14:08:05;98785.69;;;24.42;21.98
18527;BME280;9393;42.158;24.748;2023-03-26T14:11:18;98785.53;;;24.10;22.42
18527;BME280;9393;42.158;24.748;2023-03-26T14:14:30;98791.94;;;24.31;22.00
18527;BME280;9393;42.158;24.748;2023-03-26T14:17:41;98792.63;;;24.43;22.27
18527;BME280;9393;42.158;24.748;2023-03-26T14:21:04;98785.88;;;24.57;22.45
18527;BME280;9393;42.158;24.748;2023-03-26T14:24:25;98786.09;;;24.55;22.12
18527;BME280;9393;42.158;24.748;2023-03-26T14:27:39;98787.31;;;24.70;22.05
18527;BME280;9393;42.158;24.748;2023-03-26T14:31:06;98781.78;;;24.76;22.12
18527;BME280;9393;42.158;24.748;2023-03-26T14:34:26;98778.97;;;24.61;21.61
18527;BME280;9393;42.158;24.748;2023-03-26T14:37:51;98783.81;;;24.64;22.13
18527;BME280;9393;42.158;24.748;2023-03-26T14:41:05;98786.91;;;24.56;21.67
18527;BME280;9393;42.158;24.748;2023-03-26T14:48:27;98780.94;;;24.71;22.38
18527;BME280;9393;42.158;24.748;2023-03-26T14:51:50;98774.59;;;24.77;22.25
18527;BME280;9393;42.158;24.748;2023-03-26T14:54:58;98771.94;;;24.77;21.92
18527;BME280;9393;42.158;24.748;2023-03-26T14:58:27;98765.28;;;24.52;22.21
18527;BME280;9393;42.158;24.748;2023-03-26T15:02:02;98761.59;;;24.32;22.26
18527;BME280;9393;42.158;24.748;2023-03-26T15:09:37;98755.88;;;24.45;22.63
18527;BME280;9393;42.158;24.748;2023-03-26T15:13:02;98754.72;;;24.36;22.50
18527;BME280;9393;42.158;24.748;2023-03-26T15:16:23;98755.56;;;23.98;22.58
18527;BME280;9393;42.158;24.748;2023-03-26T15:20:03;98747.34;;;23.99;23.11
18527;BME280;9393;42.158;24.748;2023-03-26T15:27:39;98746.81;;;23.81;22.43
18527;BME280;9393;42.158;24.748;2023-03-26T15:31:08;98748.66;;;23.80;23.16
18527;BME280;9393;42.158;24.748;2023-03-26T15:34:32;98743.75;;;23.72;22.44
18527;BME280;9393;42.158;24.748;2023-03-26T15:41:27;98744.03;;;23.54;22.78
18527;BME280;9393;42.158;24.748;2023-03-26T15:44:47;98741.94;;;23.56;22.68
18527;BME280;9393;42.158;24.748;2023-03-26T15:48:06;98738.09;;;23.47;22.58
18527;BME280;9393;42.158;24.748;2023-03-26T15:51:44;98740.50;;;23.15;23.16
18527;BME280;9393;42.158;24.748;2023-03-26T15:54:57;98739.19;;;22.84;23.27
18527;BME280;9393;42.158;24.748;2023-03-26T15:58:07;98738.16;;;22.85;23.49
18527;BME280;9393;42.158;24.748;2023-03-26T16:01:25;98744.31;;;22.74;24.22
18527;BME280;9393;42.158;24.748;2023-03-26T16:04:42;98743.50;;;22.45;24.57
18527;BME280;9393;42.158;24.748;2023-03-26T16:07:57;98741.56;;;22.41;24.67
18527;BME280;9393;42.158;24.748;2023-03-26T16:11:06;98736.94;;;22.36;25.24
18527;BME280;9393;42.158;24.748;2023-03-26T16:14:18;98742.25;;;21.96;25.40
18527;BME280;9393;42.158;24.748;2023-03-26T16:17:26;98747.56;;;21.96;25.74
18527;BME280;9393;42.158;24.748;2023-03-26T16:20:32;98752.88;;;21.96;26.10
18527;BME280;9393;42.158;24.748;2023-03-26T16:23:51;98765.34;;;21.84;26.34
18527;BME280;9393;42.158;24.748;2023-03-26T16:27:30;98765.91;;;21.75;26.57
18527;BME280;9393;42.158;24.748;2023-03-26T16:30:37;98770.16;;;21.76;26.98
18527;BME280;9393;42.158;24.748;2023-03-26T16:33:48;98767.97;;;21.73;27.20
18527;BME280;9393;42.158;24.748;2023-03-26T16:36:54;98768.09;;;21.66;27.17
18527;BME280;9393;42.158;24.748;2023-03-26T16:40:26;98772.72;;;21.59;27.83
18527;BME280;9393;42.158;24.748;2023-03-26T16:43:51;98777.09;;;21.42;27.91
18527;BME280;9393;42.158;24.748;2023-03-26T16:47:02;98779.75;;;21.30;28.08
18527;BME280;9393;42.158;24.748;2023-03-26T16:50:20;98793.94;;;21.36;28.23
18527;BME280;9393;42.158;24.748;2023-03-26T16:53:36;98786.31;;;21.28;28.22
18527;BME280;9393;42.158;24.748;2023-03-26T16:56:47;98797.25;;;21.20;28.07
18527;BME280;9393;42.158;24.748;2023-03-26T17:03:42;98803.94;;;21.22;28.59
18527;BME280;9393;42.158;24.748;2023-03-26T17:06:56;98812.19;;;21.02;28.59
18527;BME280;9393;42.158;24.748;2023-03-26T17:10:09;98817.38;;;21.09;28.94
18527;BME280;9393;42.158;24.748;2023-03-26T17:13:21;98815.22;;;20.88;29.10
18527;BME280;9393;42.158;24.748;2023-03-26T17:16:33;98820.13;;;21.02;29.17
18527;BME280;9393;42.158;24.748;2023-03-26T17:19:42;98825.03;;;20.87;29.33
18527;BME280;9393;42.158;24.748;2023-03-26T17:22:55;98835.31;;;20.95;28.92
18527;BME280;9393;42.158;24.748;2023-03-26T17:26:10;98844.75;;;20.91;29.49
18527;BME280;9393;42.158;24.748;2023-03-26T17:29:31;98848.41;;;20.90;29.23
18527;BME280;9393;42.158;24.748;2023-03-26T17:32:56;98852.88;;;20.78;29.51
18527;BME280;9393;42.158;24.748;2023-03-26T17:36:21;98855.28;;;20.80;29.49
18527;BME280;9393;42.158;24.748;2023-03-26T17:43:35;98868.34;;;20.63;30.27
18527;BME280;9393;42.158;24.748;2023-03-26T17:46:40;98866.22;;;20.53;30.27
18527;BME280;9393;42.158;24.748;2023-03-26T17:49:49;98875.56;;;20.56;29.66
18527;BME280;9393;42.158;24.748;2023-03-26T17:52:55;98868.72;;;20.48;30.17
18527;BME280;9393;42.158;24.748;2023-03-26T17:56:02;98868.06;;;20.35;29.95
18527;BME280;9393;42.158;24.748;2023-03-26T17:59:16;98871.16;;;20.32;30.24
18527;BME280;9393;42.158;24.748;2023-03-26T18:02:33;98876.38;;;20.38;30.43
18527;BME280;9393;42.158;24.748;2023-03-26T18:05:38;98883.69;;;20.18;30.90